Saturday, June 25, 2016
03:25 UTC
  |  Log In   |  Register Free
Airport Search:

Tyler Pounds Regional Airport
(KTYR)

FAA data valid effective May 26 2016 - Jul 21 2016 (unless otherwise noted).

 
 
 
 
 
 
 
 
 
 
 
 
 
 
Current Aviation Weather for KTYR

Weather Summary


The most recent METAR observation for TYR was updated at: 12:58 UTC
METAR for KTYR is not available. Closest METAR is for KJDD
KTYR  (most recent observation was updatred at 25:02 UTC)
250253Z AUTO 15005KT 10SM CLR 27/21 A3001 RMK AO2 SLP152 T02720206 53003

KJDD  (23.8 nm SE)   (most recent observation was updated at 25:03 UTC)
250315Z AUTO 00000KT 10SM CLR 25/22 A3001 RMK AO2

KJSO  (30.6 nm NW)   (most recent observation was updated at 25:03 UTC)
250315Z AUTO 17005KT 10SM CLR 27/23 A3006 RMK AO2 T02700231

TAF for KTYR is not available.
KTYR
242340Z 2500/2524 19008KT P6SM FEW060 FEW070 FM250300 18006KT P6SM FEW250 FM251500 18006KT P6SM SCT050

GlobalAir.com is loading additional information.
 Current Weather at TYR
84.0 F° (28.9 C°)

South winds at 5.8 mph
Pressure:
29.99 in
Humidity:
59%
Wind:
South at 5.8 mph
Dew Point:
68.0 F° (20.0 C°)
Visibility:
10.00 mi
TYR NOAA Radar




Find All Airport Services Find A Hotel Find A Rental Car Find A Golf Course Find A Restaurant $100 Hamburger



Airport Weather Forecast for KTYR

Translated METAR for KTYR (0253 UTC)
METAR:
KTYR 250253Z AUTO 15005KT 10SM CLR 27/21 A3001 RMK AO2 SLP152 T02720206 53003
Conditions at:
KTYR (Tyler Pounds Rgnl, TX) observed 0253 UTC 24 June 2016
Temperature:
27°C (80.6°F)
Dewpoint:
21°C (69.8°F) [RH = 69.7]
Pressure:
30.01 inches Hg (1016.3 mb)
pressure at sea level is 152 in Hg
Winds:
from the SSE (150 degrees) at 5.8 mph (5 knots: 2.6 m/s)
Visibility:
10 mile(s)
Ceiling:
at least 12,000 feet AGL
Clouds:
Clear below 12,000 feet AGL
Remarks:
site is un-manned
site is automated and HAS a precipitation sensor

Translated TAF for KTYR (Tyler Pounds Rgnl, TX) (2340 UTC)
TAF text:
KTYR 242340Z 2500/2524 19008KT P6SM FEW060 FEW070
Forecast period:
Saturday Jun 25 2016 00:00 UTC - Saturday Jun 25 2016 24:00 UTC
Forecast type:
FROM: standard forecast or significant change
Winds:
from the S (190 degrees) at 9.2 mph (8 knots: 4.1 m/s)
Visibility:
6 or more mile(s) (9.7+ km)
Ceiling:
at least 12,000 feet AGL
Clouds:
Few Clouds at 6,000 feet AGL
Few Clouds at 7,000 feet AGL
Weather:
no significant weather observed at this time
TAF text:
FM250300 18006KT P6SM FEW250
Forecast period:
Saturday Jun 25 2016 03:00 UTC - Saturday Jun 25 2016 15:00 UTC
Forecast type:
FROM: standard forecast or significant change
Winds:
from the S (180 degrees) at 6.9 mph (6 knots: 3.1 m/s)
Visibility:
6 or more mile(s) (9.7+ km)
Ceiling:
at least 12,000 feet AGL
Clouds:
Few Clouds at 25,000 feet AGL
Weather:
no significant weather observed at this time
TAF text:
FM251500 18006KT P6SM SCT050
Forecast period:
Saturday Jun 25 2016 15:00 UTC - Saturday Jun 25 2016 24:00 UTC
Forecast type:
FROM: standard forecast or significant change
Winds:
from the S (180 degrees) at 6.9 mph (6 knots: 3.1 m/s)
Visibility:
6 or more mile(s) (9.7+ km)
Ceiling:
at least 12,000 feet AGL
Clouds:
Scattered Clouds at 5,000 feet AGL
Weather:
no significant weather observed at this time
FBO's on the Field
FBO Company Facility Photos Services Transportation Aviation Fuel Prices: Prices include tax
Catering Weather Repair Courtesy Rental Type 100LL JetA JetA+ MOGAS 8087
 
Jet Center of Tyler

Currently rated 5 by 2 people
FS:Phillips 66
Last Updated: Jun-22
Login to update fuel prices
SS:
Contact Jet Center of TylerMore FBO Information
 
Johnson Aviation, Inc

Currently rated 5 by 3 people
FS:Avfuel
Last Updated: Jun-03
Login to update fuel prices
SS:
Contact Johnson Aviation, IncMore FBO Information
 
Add another FBO Facility Photos Catering Weather Repair Courtesy Rental Type 100LL JetA JetA+ MOGAS 8087
Services Transportation Aviation Fuel Prices: Prices include tax


model-print
model-print
model-print
model-print